sensor_id;sensor_type;location;lat;lon;timestamp;pressure;altitude;pressure_sealevel;temperature;humidity
67987;BME280;54767;53.800;15.956;2022-12-24T00:01:34;99262.77;;;2.57;78.70
67987;BME280;54767;53.800;15.956;2022-12-24T00:04:00;99259.63;;;2.56;78.73
67987;BME280;54767;53.800;15.956;2022-12-24T00:06:27;99262.23;;;2.57;78.70
67987;BME280;54767;53.800;15.956;2022-12-24T00:08:54;99258.42;;;2.56;78.67
67987;BME280;54767;53.800;15.956;2022-12-24T00:11:21;99255.11;;;2.54;78.52
67987;BME280;54767;53.800;15.956;2022-12-24T00:13:48;99251.95;;;2.53;78.64
67987;BME280;54767;53.800;15.956;2022-12-24T00:16:15;99246.42;;;2.51;78.70
67987;BME280;54767;53.800;15.956;2022-12-24T00:18:42;99246.58;;;2.50;78.69
67987;BME280;54767;53.800;15.956;2022-12-24T00:21:16;99249.34;;;2.50;78.69
67987;BME280;54767;53.800;15.956;2022-12-24T00:23:43;99259.18;;;2.50;78.65
67987;BME280;54767;53.800;15.956;2022-12-24T00:26:11;99259.86;;;2.49;78.70
67987;BME280;54767;53.800;15.956;2022-12-24T00:28:39;99259.65;;;2.47;78.62
67987;BME280;54767;53.800;15.956;2022-12-24T00:31:11;99265.29;;;2.44;78.69
67987;BME280;54767;53.800;15.956;2022-12-24T00:33:41;99260.93;;;2.42;78.58
67987;BME280;54767;53.800;15.956;2022-12-24T00:36:08;99262.27;;;2.41;78.71
67987;BME280;54767;53.800;15.956;2022-12-24T00:38:35;99260.75;;;2.41;78.56
67987;BME280;54767;53.800;15.956;2022-12-24T00:41:04;99263.14;;;2.40;78.53
67987;BME280;54767;53.800;15.956;2022-12-24T00:43:32;99262.79;;;2.39;78.47
67987;BME280;54767;53.800;15.956;2022-12-24T00:45:59;99266.54;;;2.37;78.43
67987;BME280;54767;53.800;15.956;2022-12-24T00:48:25;99269.58;;;2.33;78.50
67987;BME280;54767;53.800;15.956;2022-12-24T00:50:52;99268.13;;;2.30;78.51
67987;BME280;54767;53.800;15.956;2022-12-24T00:53:19;99276.92;;;2.29;78.59
67987;BME280;54767;53.800;15.956;2022-12-24T00:55:46;99278.16;;;2.31;78.61
67987;BME280;54767;53.800;15.956;2022-12-24T00:58:12;99277.50;;;2.33;78.53
67987;BME280;54767;53.800;15.956;2022-12-24T01:00:39;99273.52;;;2.32;78.34
67987;BME280;54767;53.800;15.956;2022-12-24T01:03:06;99269.53;;;2.32;78.25
67987;BME280;54767;53.800;15.956;2022-12-24T01:05:35;99271.73;;;2.30;78.28
67987;BME280;54767;53.800;15.956;2022-12-24T01:08:02;99266.54;;;2.28;78.39
67987;BME280;54767;53.800;15.956;2022-12-24T01:10:29;99270.95;;;2.25;78.32
67987;BME280;54767;53.800;15.956;2022-12-24T01:12:56;99268.52;;;2.24;78.06
67987;BME280;54767;53.800;15.956;2022-12-24T01:15:27;99268.02;;;2.24;78.05
67987;BME280;54767;53.800;15.956;2022-12-24T01:17:54;99271.82;;;2.25;78.22
67987;BME280;54767;53.800;15.956;2022-12-24T01:20:21;99276.30;;;2.25;78.19
67987;BME280;54767;53.800;15.956;2022-12-24T01:22:47;99281.11;;;2.23;78.11
67987;BME280;54767;53.800;15.956;2022-12-24T01:25:14;99285.90;;;2.21;78.16
67987;BME280;54767;53.800;15.956;2022-12-24T01:27:41;99287.05;;;2.18;78.24
67987;BME280;54767;53.800;15.956;2022-12-24T01:30:12;99288.90;;;2.15;78.25
67987;BME280;54767;53.800;15.956;2022-12-24T01:32:39;99293.20;;;2.15;78.07
67987;BME280;54767;53.800;15.956;2022-12-24T01:35:07;99289.41;;;2.15;78.12
67987;BME280;54767;53.800;15.956;2022-12-24T01:37:35;99291.83;;;2.15;78.11
67987;BME280;54767;53.800;15.956;2022-12-24T01:40:02;99289.23;;;2.14;78.11
67987;BME280;54767;53.800;15.956;2022-12-24T01:42:48;99291.21;;;2.11;77.61
67987;BME280;54767;53.800;15.956;2022-12-24T01:45:50;99287.99;;;2.05;77.61
67987;BME280;54767;53.800;15.956;2022-12-24T01:50:50;99297.48;;;1.96;77.44
67987;BME280;54767;53.800;15.956;2022-12-24T01:53:19;99301.32;;;1.91;77.39
67987;BME280;54767;53.800;15.956;2022-12-24T01:55:46;99301.30;;;1.90;77.55
67987;BME280;54767;53.800;15.956;2022-12-24T01:58:15;99306.48;;;1.90;77.62
67987;BME280;54767;53.800;15.956;2022-12-24T02:00:43;99309.94;;;1.90;77.85
67987;BME280;54767;53.800;15.956;2022-12-24T02:03:10;99311.97;;;1.88;77.86
67987;BME280;54767;53.800;15.956;2022-12-24T02:05:53;99313.62;;;1.85;77.83
67987;BME280;54767;53.800;15.956;2022-12-24T02:08:21;99319.98;;;1.84;77.80
67987;BME280;54767;53.800;15.956;2022-12-24T02:10:49;99318.53;;;1.81;77.56
67987;BME280;54767;53.800;15.956;2022-12-24T02:13:18;99321.15;;;1.83;77.76
67987;BME280;54767;53.800;15.956;2022-12-24T02:16:01;99321.69;;;1.83;77.83
67987;BME280;54767;53.800;15.956;2022-12-24T02:22:13;99330.33;;;1.68;76.96
67987;BME280;54767;53.800;15.956;2022-12-24T02:25:02;99338.14;;;1.55;77.08
67987;BME280;54767;53.800;15.956;2022-12-24T02:30:23;99334.30;;;1.39;77.04
67987;BME280;54767;53.800;15.956;2022-12-24T02:38:10;99332.45;;;1.05;77.20
67987;BME280;54767;53.800;15.956;2022-12-24T02:40:50;99332.62;;;0.99;77.40
67987;BME280;54767;53.800;15.956;2022-12-24T02:43:32;99330.77;;;0.94;77.45
67987;BME280;54767;53.800;15.956;2022-12-24T02:46:08;99332.54;;;0.83;77.57
67987;BME280;54767;53.800;15.956;2022-12-24T02:48:40;99324.83;;;0.71;78.00
67987;BME280;54767;53.800;15.956;2022-12-24T02:51:09;99326.77;;;0.67;77.99
67987;BME280;54767;53.800;15.956;2022-12-24T02:53:36;99328.09;;;0.64;78.20
67987;BME280;54767;53.800;15.956;2022-12-24T03:07:35;99342.55;;;0.59;78.76
67987;BME280;54767;53.800;15.956;2022-12-24T03:10:26;99345.20;;;0.55;78.62
67987;BME280;54767;53.800;15.956;2022-12-24T03:13:05;99347.21;;;0.52;78.49
67987;BME280;54767;53.800;15.956;2022-12-24T03:15:33;99346.73;;;0.54;78.97
67987;BME280;54767;53.800;15.956;2022-12-24T03:18:02;99345.77;;;0.57;79.01
67987;BME280;54767;53.800;15.956;2022-12-24T03:20:34;99348.25;;;0.59;79.16
67987;BME280;54767;53.800;15.956;2022-12-24T03:23:03;99358.59;;;0.59;79.11
67987;BME280;54767;53.800;15.956;2022-12-24T03:25:31;99357.20;;;0.59;79.13
67987;BME280;54767;53.800;15.956;2022-12-24T03:28:02;99366.85;;;0.59;79.29
67987;BME280;54767;53.800;15.956;2022-12-24T03:30:31;99367.45;;;0.62;79.48
67987;BME280;54767;53.800;15.956;2022-12-24T03:32:58;99367.20;;;0.66;79.53
67987;BME280;54767;53.800;15.956;2022-12-24T03:35:25;99367.69;;;0.71;79.54
67987;BME280;54767;53.800;15.956;2022-12-24T03:37:52;99372.08;;;0.74;79.36
67987;BME280;54767;53.800;15.956;2022-12-24T03:40:19;99370.66;;;0.73;79.36
67987;BME280;54767;53.800;15.956;2022-12-24T03:42:45;99377.52;;;0.72;79.92
67987;BME280;54767;53.800;15.956;2022-12-24T03:45:12;99377.69;;;0.71;79.53
67987;BME280;54767;53.800;15.956;2022-12-24T03:47:39;99379.05;;;0.71;79.66
67987;BME280;54767;53.800;15.956;2022-12-24T03:50:06;99385.94;;;0.71;79.89
67987;BME280;54767;53.800;15.956;2022-12-24T03:52:33;99384.09;;;0.73;79.85
67987;BME280;54767;53.800;15.956;2022-12-24T03:55:00;99378.77;;;0.73;79.92
67987;BME280;54767;53.800;15.956;2022-12-24T03:57:26;99379.95;;;0.72;80.19
67987;BME280;54767;53.800;15.956;2022-12-24T03:59:53;99379.33;;;0.68;80.17
67987;BME280;54767;53.800;15.956;2022-12-24T04:02:20;99382.23;;;0.67;80.19
67987;BME280;54767;53.800;15.956;2022-12-24T04:04:47;99381.71;;;0.67;80.05
67987;BME280;54767;53.800;15.956;2022-12-24T04:07:14;99385.72;;;0.69;80.12
67987;BME280;54767;53.800;15.956;2022-12-24T04:09:41;99386.64;;;0.72;79.95
67987;BME280;54767;53.800;15.956;2022-12-24T04:12:08;99390.40;;;0.76;80.13
67987;BME280;54767;53.800;15.956;2022-12-24T04:14:35;99387.92;;;0.80;80.02
67987;BME280;54767;53.800;15.956;2022-12-24T04:17:01;99384.58;;;0.78;79.76
67987;BME280;54767;53.800;15.956;2022-12-24T04:19:28;99389.05;;;0.77;79.71
67987;BME280;54767;53.800;15.956;2022-12-24T04:21:55;99391.92;;;0.76;79.97
67987;BME280;54767;53.800;15.956;2022-12-24T04:24:22;99399.75;;;0.78;80.02
67987;BME280;54767;53.800;15.956;2022-12-24T04:26:49;99403.85;;;0.83;80.03
67987;BME280;54767;53.800;15.956;2022-12-24T04:29:15;99406.95;;;0.89;80.11
67987;BME280;54767;53.800;15.956;2022-12-24T04:31:42;99407.11;;;0.95;79.90
67987;BME280;54767;53.800;15.956;2022-12-24T04:34:09;99407.05;;;1.00;79.86
67987;BME280;54767;53.800;15.956;2022-12-24T04:36:37;99407.31;;;1.03;80.00
67987;BME280;54767;53.800;15.956;2022-12-24T04:39:04;99411.00;;;1.06;79.88
67987;BME280;54767;53.800;15.956;2022-12-24T04:41:31;99406.18;;;1.06;79.72
67987;BME280;54767;53.800;15.956;2022-12-24T04:43:58;99406.05;;;1.07;79.62
67987;BME280;54767;53.800;15.956;2022-12-24T04:46:27;99411.33;;;1.05;79.07
67987;BME280;54767;53.800;15.956;2022-12-24T04:48:58;99411.83;;;1.04;79.02
67987;BME280;54767;53.800;15.956;2022-12-24T04:51:25;99416.66;;;1.05;79.00
67987;BME280;54767;53.800;15.956;2022-12-24T04:53:53;99414.61;;;1.05;79.21
67987;BME280;54767;53.800;15.956;2022-12-24T04:56:23;99419.63;;;1.06;79.14
67987;BME280;54767;53.800;15.956;2022-12-24T04:58:50;99424.44;;;1.06;79.07
67987;BME280;54767;53.800;15.956;2022-12-24T05:01:22;99425.48;;;1.06;79.25
67987;BME280;54767;53.800;15.956;2022-12-24T05:03:50;99429.81;;;1.07;79.00
67987;BME280;54767;53.800;15.956;2022-12-24T05:06:20;99429.19;;;1.09;79.10
67987;BME280;54767;53.800;15.956;2022-12-24T05:08:47;99429.96;;;1.12;79.04
67987;BME280;54767;53.800;15.956;2022-12-24T05:11:15;99434.79;;;1.12;79.06
67987;BME280;54767;53.800;15.956;2022-12-24T05:13:43;99437.70;;;1.12;78.98
67987;BME280;54767;53.800;15.956;2022-12-24T05:16:15;99440.39;;;1.09;78.94
67987;BME280;54767;53.800;15.956;2022-12-24T05:18:43;99439.57;;;1.04;78.58
67987;BME280;54767;53.800;15.956;2022-12-24T05:21:13;99443.27;;;1.00;78.64
67987;BME280;54767;53.800;15.956;2022-12-24T05:23:40;99443.17;;;0.98;78.53
67987;BME280;54767;53.800;15.956;2022-12-24T05:26:56;99452.06;;;0.95;78.34
67987;BME280;54767;53.800;15.956;2022-12-24T05:29:24;99447.50;;;0.92;78.40
67987;BME280;54767;53.800;15.956;2022-12-24T05:31:51;99446.11;;;0.92;78.63
67987;BME280;54767;53.800;15.956;2022-12-24T05:34:17;99448.23;;;0.93;78.90
67987;BME280;54767;53.800;15.956;2022-12-24T05:36:44;99450.48;;;0.94;78.87
67987;BME280;54767;53.800;15.956;2022-12-24T05:39:15;99454.79;;;0.94;78.86
67987;BME280;54767;53.800;15.956;2022-12-24T05:41:44;99457.17;;;0.93;78.60
67987;BME280;54767;53.800;15.956;2022-12-24T05:44:12;99458.88;;;0.92;78.79
67987;BME280;54767;53.800;15.956;2022-12-24T05:46:39;99462.49;;;0.93;78.44
67987;BME280;54767;53.800;15.956;2022-12-24T05:49:07;99464.88;;;0.92;78.72
67987;BME280;54767;53.800;15.956;2022-12-24T05:51:34;99464.85;;;0.90;78.73
67987;BME280;54767;53.800;15.956;2022-12-24T05:54:01;99462.35;;;0.87;78.53
67987;BME280;54767;53.800;15.956;2022-12-24T05:56:28;99477.70;;;0.82;78.38
67987;BME280;54767;53.800;15.956;2022-12-24T05:58:54;99480.98;;;0.77;78.57
67987;BME280;54767;53.800;15.956;2022-12-24T06:01:22;99482.79;;;0.74;78.36
67987;BME280;54767;53.800;15.956;2022-12-24T06:03:50;99483.10;;;0.72;78.61
67987;BME280;54767;53.800;15.956;2022-12-24T06:06:20;99485.91;;;0.74;78.90
67987;BME280;54767;53.800;15.956;2022-12-24T06:08:48;99491.34;;;0.77;78.68
67987;BME280;54767;53.800;15.956;2022-12-24T06:11:17;99493.64;;;0.79;78.97
67987;BME280;54767;53.800;15.956;2022-12-24T06:13:45;99495.73;;;0.80;78.88
67987;BME280;54767;53.800;15.956;2022-12-24T06:16:14;99500.10;;;0.82;78.79
67987;BME280;54767;53.800;15.956;2022-12-24T06:18:42;99507.35;;;0.82;78.96
67987;BME280;54767;53.800;15.956;2022-12-24T06:21:10;99509.80;;;0.84;79.25
67987;BME280;54767;53.800;15.956;2022-12-24T06:23:38;99512.10;;;0.86;79.08
67987;BME280;54767;53.800;15.956;2022-12-24T06:26:06;99514.23;;;0.88;78.94
67987;BME280;54767;53.800;15.956;2022-12-24T06:28:36;99518.45;;;0.91;78.81
67987;BME280;54767;53.800;15.956;2022-12-24T06:31:04;99523.13;;;0.93;79.10
67987;BME280;54767;53.800;15.956;2022-12-24T06:33:32;99527.62;;;0.93;78.66
67987;BME280;54767;53.800;15.956;2022-12-24T06:35:59;99532.81;;;0.94;78.74
67987;BME280;54767;53.800;15.956;2022-12-24T06:38:28;99541.75;;;0.93;78.58
67987;BME280;54767;53.800;15.956;2022-12-24T06:40:55;99545.25;;;0.89;78.40
67987;BME280;54767;53.800;15.956;2022-12-24T06:43:22;99549.58;;;0.84;78.16
67987;BME280;54767;53.800;15.956;2022-12-24T06:45:49;99552.21;;;0.80;78.18
67987;BME280;54767;53.800;15.956;2022-12-24T06:48:16;99550.70;;;0.75;77.98
67987;BME280;54767;53.800;15.956;2022-12-24T06:50:43;99557.24;;;0.69;78.02
67987;BME280;54767;53.800;15.956;2022-12-24T06:53:10;99556.24;;;0.65;78.04
67987;BME280;54767;53.800;15.956;2022-12-24T06:55:38;99556.54;;;0.63;78.03
67987;BME280;54767;53.800;15.956;2022-12-24T06:58:05;99559.56;;;0.60;77.89
67987;BME280;54767;53.800;15.956;2022-12-24T07:00:32;99564.83;;;0.58;78.09
67987;BME280;54767;53.800;15.956;2022-12-24T07:02:59;99569.80;;;0.58;78.16
67987;BME280;54767;53.800;15.956;2022-12-24T07:05:27;99572.25;;;0.58;78.11
67987;BME280;54767;53.800;15.956;2022-12-24T07:07:54;99573.58;;;0.57;77.95
67987;BME280;54767;53.800;15.956;2022-12-24T07:10:21;99576.23;;;0.54;77.95
67987;BME280;54767;53.800;15.956;2022-12-24T07:12:48;99578.52;;;0.50;78.09
67987;BME280;54767;53.800;15.956;2022-12-24T07:15:16;99578.43;;;0.42;78.04
67987;BME280;54767;53.800;15.956;2022-12-24T07:17:43;99582.10;;;0.33;78.02
67987;BME280;54767;53.800;15.956;2022-12-24T07:20:15;99589.47;;;0.27;78.20
67987;BME280;54767;53.800;15.956;2022-12-24T07:22:42;99594.36;;;0.24;78.17
67987;BME280;54767;53.800;15.956;2022-12-24T07:25:09;99600.54;;;0.23;78.16
67987;BME280;54767;53.800;15.956;2022-12-24T07:27:37;99607.52;;;0.20;78.47
67987;BME280;54767;53.800;15.956;2022-12-24T07:30:05;99611.76;;;0.19;78.46
67987;BME280;54767;53.800;15.956;2022-12-24T07:32:32;99613.77;;;0.17;78.71
67987;BME280;54767;53.800;15.956;2022-12-24T07:34:59;99617.60;;;0.14;78.73
67987;BME280;54767;53.800;15.956;2022-12-24T07:37:26;99622.02;;;0.12;78.91
67987;BME280;54767;53.800;15.956;2022-12-24T07:39:53;99629.37;;;0.11;79.06
67987;BME280;54767;53.800;15.956;2022-12-24T07:42:20;99630.48;;;0.12;79.17
67987;BME280;54767;53.800;15.956;2022-12-24T07:44:47;99636.02;;;0.14;79.13
67987;BME280;54767;53.800;15.956;2022-12-24T07:47:14;99641.45;;;0.17;79.17
67987;BME280;54767;53.800;15.956;2022-12-24T07:49:41;99646.80;;;0.17;78.91
67987;BME280;54767;53.800;15.956;2022-12-24T07:52:08;99654.94;;;0.18;79.15
67987;BME280;54767;53.800;15.956;2022-12-24T07:54:35;99655.48;;;0.20;79.38
67987;BME280;54767;53.800;15.956;2022-12-24T07:57:02;99655.27;;;0.18;79.28
67987;BME280;54767;53.800;15.956;2022-12-24T07:59:28;99657.99;;;0.17;79.38
67987;BME280;54767;53.800;15.956;2022-12-24T08:01:55;99660.22;;;0.17;79.57
67987;BME280;54767;53.800;15.956;2022-12-24T08:04:22;99664.36;;;0.17;79.74
67987;BME280;54767;53.800;15.956;2022-12-24T08:06:49;99660.31;;;0.20;79.94
67987;BME280;54767;53.800;15.956;2022-12-24T08:09:16;99658.40;;;0.25;79.78
67987;BME280;54767;53.800;15.956;2022-12-24T08:11:43;99661.23;;;0.27;79.85
67987;BME280;54767;53.800;15.956;2022-12-24T08:14:18;99663.05;;;0.30;79.52
67987;BME280;54767;53.800;15.956;2022-12-24T08:16:45;99664.65;;;0.32;79.80
67987;BME280;54767;53.800;15.956;2022-12-24T08:19:12;99658.67;;;0.32;79.47
67987;BME280;54767;53.800;15.956;2022-12-24T08:21:39;99660.74;;;0.33;79.87
67987;BME280;54767;53.800;15.956;2022-12-24T08:24:06;99664.48;;;0.36;79.81
67987;BME280;54767;53.800;15.956;2022-12-24T08:26:33;99669.79;;;0.41;80.03
67987;BME280;54767;53.800;15.956;2022-12-24T08:29:00;99676.48;;;0.46;80.23
67987;BME280;54767;53.800;15.956;2022-12-24T08:31:27;99679.34;;;0.48;80.18
67987;BME280;54767;53.800;15.956;2022-12-24T08:33:54;99684.25;;;0.51;80.41
67987;BME280;54767;53.800;15.956;2022-12-24T08:36:21;99688.80;;;0.53;80.08
67987;BME280;54767;53.800;15.956;2022-12-24T08:38:48;99688.16;;;0.55;80.21
67987;BME280;54767;53.800;15.956;2022-12-24T08:41:15;99692.42;;;0.59;80.11
67987;BME280;54767;53.800;15.956;2022-12-24T08:43:42;99692.96;;;0.59;80.16
67987;BME280;54767;53.800;15.956;2022-12-24T08:46:09;99693.05;;;0.57;79.88
67987;BME280;54767;53.800;15.956;2022-12-24T08:48:36;99700.34;;;0.59;80.12
67987;BME280;54767;53.800;15.956;2022-12-24T08:51:08;99706.77;;;0.60;80.28
67987;BME280;54767;53.800;15.956;2022-12-24T08:53:36;99710.05;;;0.60;80.00
67987;BME280;54767;53.800;15.956;2022-12-24T08:56:05;99714.45;;;0.58;80.23
67987;BME280;54767;53.800;15.956;2022-12-24T08:58:35;99716.54;;;0.54;80.04
67987;BME280;54767;53.800;15.956;2022-12-24T09:01:11;99711.12;;;0.52;80.20
67987;BME280;54767;53.800;15.956;2022-12-24T09:03:38;99709.88;;;0.50;80.24
67987;BME280;54767;53.800;15.956;2022-12-24T09:06:06;99711.10;;;0.51;80.39
67987;BME280;54767;53.800;15.956;2022-12-24T09:08:33;99715.23;;;0.52;80.29
67987;BME280;54767;53.800;15.956;2022-12-24T09:11:12;99719.79;;;0.53;80.66
67987;BME280;54767;53.800;15.956;2022-12-24T09:13:39;99721.23;;;0.55;80.75
67987;BME280;54767;53.800;15.956;2022-12-24T09:16:07;99722.63;;;0.56;80.66
67987;BME280;54767;53.800;15.956;2022-12-24T09:18:35;99723.23;;;0.58;80.80
67987;BME280;54767;53.800;15.956;2022-12-24T09:21:04;99721.68;;;0.58;80.63
67987;BME280;54767;53.800;15.956;2022-12-24T09:23:37;99725.31;;;0.58;80.87
67987;BME280;54767;53.800;15.956;2022-12-24T09:26:32;99726.15;;;0.59;80.70
67987;BME280;54767;53.800;15.956;2022-12-24T09:28:58;99733.43;;;0.59;80.72
67987;BME280;54767;53.800;15.956;2022-12-24T09:31:28;99735.27;;;0.63;80.98
67987;BME280;54767;53.800;15.956;2022-12-24T09:33:55;99739.38;;;0.67;81.10
67987;BME280;54767;53.800;15.956;2022-12-24T09:36:22;99750.04;;;0.72;81.14
67987;BME280;54767;53.800;15.956;2022-12-24T09:38:49;99752.52;;;0.74;81.02
67987;BME280;54767;53.800;15.956;2022-12-24T09:46:53;99752.51;;;0.74;81.14
67987;BME280;54767;53.800;15.956;2022-12-24T09:49:24;99750.67;;;0.76;81.34
67987;BME280;54767;53.800;15.956;2022-12-24T09:51:59;99742.97;;;0.78;81.13
67987;BME280;54767;53.800;15.956;2022-12-24T09:54:33;99745.65;;;0.80;81.33
67987;BME280;54767;53.800;15.956;2022-12-24T09:57:47;99744.44;;;0.80;81.32
67987;BME280;54767;53.800;15.956;2022-12-24T10:00:19;99751.25;;;0.82;81.53
67987;BME280;54767;53.800;15.956;2022-12-24T10:02:47;99753.90;;;0.84;81.62
67987;BME280;54767;53.800;15.956;2022-12-24T10:05:16;99753.35;;;0.88;81.46
67987;BME280;54767;53.800;15.956;2022-12-24T10:07:56;99761.80;;;0.95;81.71
67987;BME280;54767;53.800;15.956;2022-12-24T10:10:45;99768.80;;;1.03;81.80
67987;BME280;54767;53.800;15.956;2022-12-24T10:16:02;99774.52;;;1.14;81.68
67987;BME280;54767;53.800;15.956;2022-12-24T10:21:41;99773.27;;;1.29;81.80
67987;BME280;54767;53.800;15.956;2022-12-24T10:24:17;99774.31;;;1.35;81.72
67987;BME280;54767;53.800;15.956;2022-12-24T10:26:53;99777.79;;;1.42;81.63
67987;BME280;54767;53.800;15.956;2022-12-24T10:29:26;99782.65;;;1.48;81.54
67987;BME280;54767;53.800;15.956;2022-12-24T10:32:08;99784.17;;;1.52;81.75
67987;BME280;54767;53.800;15.956;2022-12-24T10:34:48;99783.32;;;1.59;81.54
67987;BME280;54767;53.800;15.956;2022-12-24T10:37:27;99786.66;;;1.67;81.51
67987;BME280;54767;53.800;15.956;2022-12-24T10:39:57;99788.72;;;1.72;81.49
67987;BME280;54767;53.800;15.956;2022-12-24T10:42:45;99793.38;;;1.78;81.48
67987;BME280;54767;53.800;15.956;2022-12-24T10:45:21;99795.19;;;1.80;81.34
67987;BME280;54767;53.800;15.956;2022-12-24T10:47:54;99803.80;;;1.86;81.43
67987;BME280;54767;53.800;15.956;2022-12-24T10:50:30;99806.71;;;1.91;81.36
67987;BME280;54767;53.800;15.956;2022-12-24T10:53:18;99808.02;;;1.94;81.20
67987;BME280;54767;53.800;15.956;2022-12-24T10:55:47;99811.35;;;2.02;81.05
67987;BME280;54767;53.800;15.956;2022-12-24T10:58:17;99812.50;;;2.06;80.92
67987;BME280;54767;53.800;15.956;2022-12-24T11:00:49;99812.69;;;2.06;80.83
67987;BME280;54767;53.800;15.956;2022-12-24T11:15:43;99824.67;;;1.91;80.35
67987;BME280;54767;53.800;15.956;2022-12-24T11:23:43;99823.35;;;1.99;81.02
67987;BME280;54767;53.800;15.956;2022-12-24T11:27:47;99826.69;;;2.13;81.41
67987;BME280;54767;53.800;15.956;2022-12-24T11:34:43;99823.02;;;2.30;81.27
67987;BME280;54767;53.800;15.956;2022-12-24T11:40:21;99825.27;;;2.42;81.29
67987;BME280;54767;53.800;15.956;2022-12-24T11:43:44;99819.33;;;2.45;80.79
67987;BME280;54767;53.800;15.956;2022-12-24T11:50:35;99821.90;;;2.39;81.09
67987;BME280;54767;53.800;15.956;2022-12-24T11:58:44;99830.83;;;2.56;81.18
67987;BME280;54767;53.800;15.956;2022-12-24T12:12:21;99834.71;;;2.91;81.17
67987;BME280;54767;53.800;15.956;2022-12-24T12:15:14;99837.22;;;2.94;81.02
67987;BME280;54767;53.800;15.956;2022-12-24T12:18:17;99837.14;;;2.98;80.77
67987;BME280;54767;53.800;15.956;2022-12-24T12:26:00;99857.33;;;3.03;80.22
67987;BME280;54767;53.800;15.956;2022-12-24T12:31:44;99860.64;;;2.98;80.21
67987;BME280;54767;53.800;15.956;2022-12-24T12:37:24;99858.95;;;2.92;80.10
67987;BME280;54767;53.800;15.956;2022-12-24T12:39:54;99864.98;;;2.91;80.13
67987;BME280;54767;53.800;15.956;2022-12-24T12:53:12;99889.13;;;2.90;80.25
67987;BME280;54767;53.800;15.956;2022-12-24T12:58:38;99898.14;;;2.91;79.91
67987;BME280;54767;53.800;15.956;2022-12-24T13:01:16;99901.08;;;2.91;79.79
67987;BME280;54767;53.800;15.956;2022-12-24T13:10:22;99911.08;;;2.96;79.93
67987;BME280;54767;53.800;15.956;2022-12-24T13:19:13;99919.67;;;2.94;79.98
67987;BME280;54767;53.800;15.956;2022-12-24T13:21:41;99913.20;;;2.98;80.08
67987;BME280;54767;53.800;15.956;2022-12-24T13:24:29;99914.99;;;3.01;79.98
67987;BME280;54767;53.800;15.956;2022-12-24T13:27:16;99918.89;;;3.04;79.93
67987;BME280;54767;53.800;15.956;2022-12-24T13:29:51;99929.34;;;3.07;80.10
67987;BME280;54767;53.800;15.956;2022-12-24T13:34:47;99918.80;;;3.01;79.92
67987;BME280;54767;53.800;15.956;2022-12-24T13:37:31;99921.67;;;3.04;79.92
67987;BME280;54767;53.800;15.956;2022-12-24T13:40:13;99918.52;;;3.03;79.84
67987;BME280;54767;53.800;15.956;2022-12-24T13:48:13;99922.30;;;3.02;79.70
67987;BME280;54767;53.800;15.956;2022-12-24T13:50:46;99925.02;;;3.00;79.65
67987;BME280;54767;53.800;15.956;2022-12-24T13:53:22;99920.82;;;2.98;79.39
67987;BME280;54767;53.800;15.956;2022-12-24T13:58:24;99922.04;;;2.92;79.73
67987;BME280;54767;53.800;15.956;2022-12-24T14:00:55;99927.17;;;2.90;79.54
67987;BME280;54767;53.800;15.956;2022-12-24T14:03:25;99926.80;;;2.89;79.58
67987;BME280;54767;53.800;15.956;2022-12-24T14:06:04;99928.70;;;2.89;79.74
67987;BME280;54767;53.800;15.956;2022-12-24T14:08:36;99932.09;;;2.87;79.69
67987;BME280;54767;53.800;15.956;2022-12-24T14:11:16;99937.04;;;2.85;79.74
67987;BME280;54767;53.800;15.956;2022-12-24T14:16:24;99949.64;;;2.84;79.50
67987;BME280;54767;53.800;15.956;2022-12-24T14:19:00;99953.27;;;2.85;79.66
67987;BME280;54767;53.800;15.956;2022-12-24T14:21:34;99954.39;;;2.87;79.65
67987;BME280;54767;53.800;15.956;2022-12-24T14:24:15;99949.56;;;2.87;79.47
67987;BME280;54767;53.800;15.956;2022-12-24T14:26:47;99959.15;;;2.91;79.55
67987;BME280;54767;53.800;15.956;2022-12-24T14:29:30;99963.51;;;2.91;79.68
67987;BME280;54767;53.800;15.956;2022-12-24T14:31:59;99966.25;;;2.91;79.65
67987;BME280;54767;53.800;15.956;2022-12-24T14:34:30;99966.83;;;2.93;79.65
67987;BME280;54767;53.800;15.956;2022-12-24T14:36:59;99976.06;;;2.96;79.59
67987;BME280;54767;53.800;15.956;2022-12-24T14:39:35;99976.84;;;2.99;79.59
67987;BME280;54767;53.800;15.956;2022-12-24T14:42:15;99978.48;;;3.02;79.47
67987;BME280;54767;53.800;15.956;2022-12-24T14:50:33;99982.89;;;2.99;79.43
67987;BME280;54767;53.800;15.956;2022-12-24T14:53:12;99982.80;;;2.96;79.55
67987;BME280;54767;53.800;15.956;2022-12-24T14:55:47;99981.66;;;2.92;79.20
67987;BME280;54767;53.800;15.956;2022-12-24T15:19:22;100002.92;;;2.92;79.19
67987;BME280;54767;53.800;15.956;2022-12-24T15:21:51;100003.48;;;2.93;78.96
67987;BME280;54767;53.800;15.956;2022-12-24T15:24:30;100005.90;;;2.93;79.03
67987;BME280;54767;53.800;15.956;2022-12-24T15:27:23;100009.32;;;2.92;78.99
67987;BME280;54767;53.800;15.956;2022-12-24T15:29:54;100015.96;;;2.89;79.15
67987;BME280;54767;53.800;15.956;2022-12-24T15:32:50;100015.69;;;2.85;79.11
67987;BME280;54767;53.800;15.956;2022-12-24T15:35:52;100020.65;;;2.84;79.27
67987;BME280;54767;53.800;15.956;2022-12-24T15:38:49;100024.59;;;2.82;78.96
67987;BME280;54767;53.800;15.956;2022-12-24T15:41:50;100016.98;;;2.76;79.18
67987;BME280;54767;53.800;15.956;2022-12-24T15:44:37;100027.27;;;2.79;79.07
67987;BME280;54767;53.800;15.956;2022-12-24T15:47:07;100021.71;;;2.79;78.99
67987;BME280;54767;53.800;15.956;2022-12-24T15:49:44;100026.47;;;2.76;79.10
67987;BME280;54767;53.800;15.956;2022-12-24T15:52:15;100025.21;;;2.75;79.11
67987;BME280;54767;53.800;15.956;2022-12-24T15:54:45;100031.41;;;2.74;79.02
67987;BME280;54767;53.800;15.956;2022-12-24T15:57:30;100034.77;;;2.76;79.40
67987;BME280;54767;53.800;15.956;2022-12-24T16:00:00;100032.45;;;2.79;78.98
67987;BME280;54767;53.800;15.956;2022-12-24T16:02:43;100033.65;;;2.79;79.14
67987;BME280;54767;53.800;15.956;2022-12-24T16:08:37;100036.50;;;2.76;79.32